createdAt,value
2023-01-15T00:00:53.333Z,4.68
2023-01-15T00:03:39.617Z,5.50
2023-01-15T00:06:26.464Z,5.30
2023-01-15T00:09:15.059Z,5.28
2023-01-15T00:12:02.982Z,5.35
2023-01-15T00:14:49.452Z,5.65
2023-01-15T00:17:35.529Z,5.70
2023-01-15T00:20:22.515Z,5.78
2023-01-15T00:23:28.963Z,6.20
2023-01-15T00:26:37.544Z,6.13
2023-01-15T00:29:25.012Z,6.10
2023-01-15T00:32:11.414Z,6.68
2023-01-15T00:34:59.343Z,7.18
2023-01-15T00:37:46.003Z,7.40
2023-01-15T00:40:32.458Z,7.32
2023-01-15T00:43:18.682Z,7.93
2023-01-15T00:46:05.918Z,8.10
2023-01-15T00:48:52.338Z,8.45
2023-01-15T00:51:38.492Z,8.43
2023-01-15T00:54:25.121Z,8.65
2023-01-15T00:57:12.852Z,8.50
2023-01-15T00:59:58.917Z,8.55
2023-01-15T01:02:45.072Z,9.25
2023-01-15T01:05:32.719Z,8.60
2023-01-15T01:08:19.681Z,9.05
2023-01-15T01:11:07.154Z,9.15
2023-01-15T01:13:55.713Z,8.90
2023-01-15T01:16:42.407Z,9.13
2023-01-15T01:19:28.823Z,8.93
2023-01-15T01:22:15.336Z,9.75
2023-01-15T01:25:01.454Z,8.77
2023-01-15T01:27:47.904Z,9.18
2023-01-15T01:30:34.111Z,9.50
2023-01-15T01:33:20.807Z,9.27
2023-01-15T01:38:17.561Z,9.25
2023-01-15T01:41:04.792Z,8.63
2023-01-15T01:43:55.970Z,8.57
2023-01-15T01:46:43.031Z,8.38
2023-01-15T01:49:29.393Z,8.68
2023-01-15T01:52:39.010Z,8.30
2023-01-15T01:55:27.416Z,8.55
2023-01-15T01:58:14.313Z,8.30
2023-01-15T02:01:00.979Z,7.68
2023-01-15T02:03:47.688Z,8.10
2023-01-15T02:06:34.156Z,7.22
2023-01-15T02:09:21.131Z,7.38
2023-01-15T02:12:13.572Z,7.25
2023-01-15T02:15:18.285Z,7.68
2023-01-15T02:18:23.520Z,7.05
2023-01-15T02:21:09.551Z,7.75
2023-01-15T02:23:58.827Z,7.43
2023-01-15T02:26:51.467Z,7.28
2023-01-15T02:29:41.838Z,7.95
2023-01-15T02:32:28.333Z,7.38
2023-01-15T02:35:19.705Z,6.88
2023-01-15T02:38:11.886Z,7.55
2023-01-15T02:40:59.896Z,7.57
2023-01-15T02:43:48.612Z,6.75
2023-01-15T02:46:37.261Z,6.65
2023-01-15T02:49:27.506Z,7.45
2023-01-15T02:52:21.178Z,6.95
2023-01-15T02:55:34.071Z,6.43
2023-01-15T02:58:26.639Z,7.53
2023-01-15T03:01:19.554Z,6.90
2023-01-15T03:04:14.222Z,7.18
2023-01-15T03:07:20.748Z,6.80
2023-01-15T03:10:07.994Z,7.75
2023-01-15T03:13:04.092Z,7.75
2023-01-15T03:16:35.380Z,7.43
2023-01-15T03:19:21.817Z,7.00
2023-01-15T03:22:22.552Z,7.00
2023-01-15T03:25:21.764Z,7.53
2023-01-15T03:28:12.069Z,7.35
2023-01-15T03:31:00.441Z,7.38
2023-01-15T03:33:47.239Z,7.82
2023-01-15T03:36:39.059Z,6.97
2023-01-15T03:39:26.107Z,7.75
2023-01-15T03:42:32.653Z,7.38
2023-01-15T03:45:18.903Z,7.30
2023-01-15T03:48:17.335Z,7.82
2023-01-15T03:51:04.662Z,7.13
2023-01-15T03:53:55.911Z,7.35
2023-01-15T04:00:25.155Z,7.22
2023-01-15T04:03:16.974Z,7.82
2023-01-15T04:06:04.346Z,8.13
2023-01-15T04:08:50.976Z,7.60
2023-01-15T04:11:47.018Z,8.20
2023-01-15T04:14:33.931Z,7.53
2023-01-15T04:17:25.944Z,8.18
2023-01-15T04:20:13.469Z,8.40
2023-01-15T04:23:01.629Z,8.45
2023-01-15T04:25:47.742Z,9.00
2023-01-15T04:28:34.353Z,9.27
2023-01-15T04:31:20.740Z,8.88
2023-01-15T04:34:07.778Z,9.30
2023-01-15T04:36:54.146Z,9.68
2023-01-15T04:39:40.927Z,9.43
2023-01-15T04:42:46.073Z,9.57
2023-01-15T04:45:32.525Z,9.95
2023-01-15T04:48:18.911Z,10.07
2023-01-15T04:51:05.942Z,10.60
2023-01-15T04:53:52.828Z,10.73
2023-01-15T04:56:41.240Z,10.90
2023-01-15T04:59:28.092Z,11.13
2023-01-15T05:02:15.600Z,11.10
2023-01-15T05:05:02.254Z,11.70
2023-01-15T05:07:48.576Z,11.15
2023-01-15T05:10:34.782Z,11.57
2023-01-15T05:13:21.334Z,11.57
2023-01-15T05:16:12.744Z,11.52
2023-01-15T05:19:02.209Z,10.80
2023-01-15T05:21:48.943Z,11.80
2023-01-15T05:24:35.416Z,11.27
2023-01-15T05:27:21.711Z,11.40
2023-01-15T05:30:08.222Z,10.77
2023-01-15T05:32:54.801Z,11.18
2023-01-15T05:35:41.324Z,11.82
2023-01-15T05:38:27.635Z,10.80
2023-01-15T05:41:33.979Z,11.40
2023-01-15T05:44:25.789Z,10.73
2023-01-15T05:47:12.048Z,11.18
2023-01-15T05:49:59.089Z,10.73
2023-01-15T05:52:45.576Z,10.55
2023-01-15T05:55:31.803Z,10.82
2023-01-15T05:58:17.934Z,11.27
2023-01-15T06:01:08.657Z,10.38
2023-01-15T06:03:56.083Z,10.88
2023-01-15T06:06:43.905Z,10.93
2023-01-15T06:09:30.799Z,10.02
2023-01-15T06:12:17.354Z,10.68
2023-01-15T06:15:03.610Z,11.25
2023-01-15T06:17:51.206Z,9.65
2023-01-15T06:20:38.467Z,10.35
2023-01-15T06:23:24.734Z,10.25
2023-01-15T06:26:15.427Z,10.10
2023-01-15T06:29:02.443Z,9.73
2023-01-15T06:31:49.678Z,9.45
2023-01-15T06:34:36.646Z,10.00
2023-01-15T06:37:22.687Z,10.15
2023-01-15T06:40:09.392Z,10.23
2023-01-15T06:43:17.730Z,9.95
2023-01-15T06:46:23.003Z,9.05
2023-01-15T06:49:09.546Z,9.60
2023-01-15T06:51:55.705Z,10.00
2023-01-15T06:54:41.781Z,10.50
2023-01-15T06:57:28.204Z,9.80
2023-01-15T07:00:14.633Z,10.48
2023-01-15T07:03:01.480Z,9.77
2023-01-15T07:05:47.786Z,10.25
2023-01-15T07:08:34.236Z,9.63
2023-01-15T07:11:20.637Z,10.57
2023-01-15T07:14:07.122Z,10.82
2023-01-15T07:16:53.919Z,10.48
2023-01-15T07:19:40.801Z,10.45
2023-01-15T07:22:27.350Z,10.90
2023-01-15T07:25:13.381Z,10.15
2023-01-15T07:28:00.236Z,10.27
2023-01-15T07:30:46.893Z,9.68
2023-01-15T07:33:33.506Z,10.15
2023-01-15T07:36:19.851Z,10.38
2023-01-15T07:39:06.285Z,10.50
2023-01-15T07:42:11.458Z,10.57
2023-01-15T07:45:16.581Z,11.93
2023-01-15T07:48:21.862Z,10.00
2023-01-15T07:51:08.173Z,9.80
2023-01-15T07:53:54.223Z,10.07
2023-01-15T07:56:40.527Z,9.45
2023-01-15T07:59:26.818Z,9.63
2023-01-15T08:02:13.342Z,9.38
2023-01-15T08:04:59.933Z,9.50
2023-01-15T08:07:47.469Z,9.80
2023-01-15T08:10:53.407Z,9.27
2023-01-15T08:13:57.876Z,9.43
2023-01-15T08:16:44.406Z,9.30
2023-01-15T08:19:31.009Z,9.07
2023-01-15T08:22:17.795Z,9.02
2023-01-15T08:25:04.304Z,9.00
2023-01-15T08:27:51.736Z,8.65
2023-01-15T08:30:38.343Z,9.45
2023-01-15T08:33:25.296Z,8.88
2023-01-15T08:36:12.543Z,8.95
2023-01-15T08:38:59.046Z,8.82
2023-01-15T08:41:45.214Z,8.70
2023-01-15T08:44:31.750Z,9.38
2023-01-15T08:47:18.734Z,9.05
2023-01-15T08:50:06.675Z,8.68
2023-01-15T08:52:53.180Z,9.02
2023-01-15T08:55:39.310Z,8.73
2023-01-15T08:58:26.367Z,8.88
2023-01-15T09:01:16.096Z,9.52
2023-01-15T09:04:02.682Z,9.40
2023-01-15T09:06:50.027Z,9.57
2023-01-15T09:09:36.976Z,9.30
2023-01-15T09:12:25.672Z,9.45
2023-01-15T09:15:11.999Z,9.95
2023-01-15T09:17:58.731Z,9.90
2023-01-15T09:20:44.997Z,9.25
2023-01-15T09:23:31.376Z,9.30
2023-01-15T09:26:44.409Z,9.98
2023-01-15T09:29:30.919Z,9.53
2023-01-15T09:32:26.447Z,10.00
2023-01-15T09:35:19.069Z,9.60
2023-01-15T09:38:05.519Z,9.48
2023-01-15T09:40:59.258Z,10.02
2023-01-15T09:43:51.336Z,9.43
2023-01-15T09:46:57.807Z,9.30
2023-01-15T09:50:03.020Z,9.50
2023-01-15T09:52:58.965Z,9.68
2023-01-15T09:57:15.152Z,9.45
2023-01-15T10:01:57.855Z,9.35
2023-01-15T10:04:47.196Z,8.90
2023-01-15T10:07:45.879Z,9.88
2023-01-15T10:10:41.068Z,8.93
2023-01-15T10:13:36.402Z,9.73
2023-01-15T10:16:27.277Z,9.02
2023-01-15T10:19:13.948Z,9.40
2023-01-15T10:22:05.982Z,9.10
2023-01-15T10:24:56.690Z,9.45
2023-01-15T10:27:45.117Z,9.63
2023-01-15T10:30:37.589Z,9.23
2023-01-15T10:33:42.221Z,8.85
2023-01-15T10:36:46.738Z,9.05
2023-01-15T10:39:42.290Z,8.65
2023-01-15T10:42:47.627Z,9.98
2023-01-15T10:45:45.785Z,9.93
2023-01-15T10:48:38.863Z,8.93
2023-01-15T10:51:29.551Z,8.57
2023-01-15T10:54:18.613Z,8.90
2023-01-15T10:57:14.141Z,9.02
2023-01-15T11:00:01.746Z,9.05
2023-01-15T11:02:52.175Z,9.60
2023-01-15T11:05:39.009Z,9.05
2023-01-15T11:09:08.719Z,8.95
2023-01-15T11:12:09.453Z,9.05
2023-01-15T11:15:14.318Z,9.27
2023-01-15T11:18:21.609Z,8.73
2023-01-15T11:21:13.186Z,8.38
2023-01-15T11:24:00.377Z,8.50
2023-01-15T11:26:49.068Z,8.63
2023-01-15T11:29:37.616Z,8.45
2023-01-15T11:32:30.101Z,8.27
2023-01-15T11:35:19.400Z,9.20
2023-01-15T11:38:15.218Z,8.73
2023-01-15T11:41:02.446Z,8.98
2023-01-15T11:44:15.361Z,9.15
2023-01-15T11:47:20.821Z,8.73
2023-01-15T11:50:38.612Z,8.43
2023-01-15T11:53:27.737Z,9.15
2023-01-15T11:56:23.627Z,9.15
2023-01-15T11:59:20.377Z,8.35
2023-01-15T12:02:19.455Z,8.80
2023-01-15T12:05:06.232Z,8.80
2023-01-15T12:07:54.805Z,8.10
2023-01-15T12:11:20.972Z,8.13
2023-01-15T12:14:26.113Z,8.20
2023-01-15T12:17:28.244Z,7.57
2023-01-15T12:20:41.734Z,7.22
2023-01-15T12:23:33.760Z,7.65
2023-01-15T12:26:29.284Z,7.75
2023-01-15T12:29:18.732Z,7.57
2023-01-15T12:32:08.714Z,7.60
2023-01-15T12:34:55.567Z,7.45
2023-01-15T12:37:46.113Z,7.55
2023-01-15T12:40:39.365Z,8.00
2023-01-15T12:43:47.660Z,6.60
2023-01-15T12:46:35.708Z,7.30
2023-01-15T12:49:41.934Z,7.03
2023-01-15T12:52:34.850Z,7.38
2023-01-15T12:55:23.375Z,7.80
2023-01-15T12:58:28.416Z,7.68
2023-01-15T13:01:15.091Z,7.57
2023-01-15T13:04:04.824Z,7.30
2023-01-15T13:06:57.761Z,7.60
2023-01-15T13:09:44.614Z,7.20
2023-01-15T13:12:31.796Z,7.28
2023-01-15T13:15:19.261Z,7.07
2023-01-15T13:18:18.138Z,7.40
2023-01-15T13:21:13.026Z,7.35
2023-01-15T13:24:17.926Z,6.95
2023-01-15T13:27:05.285Z,7.32
2023-01-15T13:29:51.768Z,7.00
2023-01-15T13:32:49.726Z,6.88
2023-01-15T13:35:41.338Z,7.03
2023-01-15T13:38:29.456Z,6.88
2023-01-15T13:41:40.808Z,7.03
2023-01-15T13:44:31.154Z,7.20
2023-01-15T13:47:26.477Z,6.97
2023-01-15T13:50:20.329Z,7.10
2023-01-15T13:53:18.817Z,6.65
2023-01-15T13:56:28.783Z,6.65
2023-01-15T13:59:33.825Z,7.35
2023-01-15T14:02:30.983Z,7.00
2023-01-15T14:05:37.961Z,6.63
2023-01-15T14:08:26.643Z,6.57
2023-01-15T14:11:32.213Z,6.53
2023-01-15T14:14:32.173Z,7.00
2023-01-15T14:17:37.222Z,6.28
2023-01-15T14:20:24.212Z,6.32
2023-01-15T14:23:29.641Z,6.30
2023-01-15T14:26:20.518Z,6.55
2023-01-15T14:29:28.604Z,6.03
2023-01-15T14:32:17.845Z,5.60
2023-01-15T14:35:05.624Z,5.70
2023-01-15T14:37:54.904Z,6.55
2023-01-15T14:40:50.618Z,6.35
2023-01-15T14:43:41.491Z,6.07
2023-01-15T14:46:35.745Z,5.80
2023-01-15T14:49:32.163Z,6.05
2023-01-15T14:52:23.705Z,6.15
2023-01-15T14:55:12.892Z,5.63
2023-01-15T14:58:09.031Z,6.38
2023-01-15T15:00:57.150Z,6.38
2023-01-15T15:03:52.479Z,6.20
2023-01-15T15:10:20.243Z,6.55
2023-01-15T15:13:16.118Z,6.78
2023-01-15T15:16:02.873Z,6.53
2023-01-15T15:18:58.520Z,6.20
2023-01-15T15:21:46.335Z,6.85
2023-01-15T15:24:34.339Z,6.20
2023-01-15T15:27:22.779Z,7.07
2023-01-15T15:30:12.702Z,7.35
2023-01-15T15:32:58.944Z,7.50
2023-01-15T15:35:47.670Z,6.90
2023-01-15T15:38:34.255Z,6.95
2023-01-15T15:41:41.000Z,6.88
2023-01-15T15:44:52.481Z,6.63
2023-01-15T15:48:14.252Z,6.22
2023-01-15T15:51:00.936Z,6.70
2023-01-15T15:53:47.289Z,6.47
2023-01-15T15:56:34.050Z,6.80
2023-01-15T15:59:30.397Z,7.05
2023-01-15T16:02:17.021Z,6.50
2023-01-15T16:05:04.869Z,6.65
2023-01-15T16:07:52.127Z,6.72
2023-01-15T16:10:38.695Z,7.00
2023-01-15T16:13:45.389Z,7.00
2023-01-15T16:16:32.694Z,7.30
2023-01-15T16:19:21.548Z,6.65
2023-01-15T16:22:09.885Z,6.82
2023-01-15T16:24:57.583Z,6.70
2023-01-15T16:27:45.303Z,7.10
2023-01-15T16:30:32.673Z,7.10
2023-01-15T16:33:19.480Z,6.82
2023-01-15T16:36:08.688Z,7.13
2023-01-15T16:38:55.474Z,6.88
2023-01-15T16:41:42.649Z,7.35
2023-01-15T16:44:32.572Z,7.30
2023-01-15T16:47:23.321Z,7.20
2023-01-15T16:50:26.014Z,7.57
2023-01-15T16:53:31.582Z,7.60
2023-01-15T16:56:37.926Z,7.43
2023-01-15T16:59:27.270Z,7.13
2023-01-15T17:02:17.768Z,7.50
2023-01-15T17:05:15.163Z,7.68
2023-01-15T17:08:01.157Z,7.85
2023-01-15T17:10:55.283Z,7.50
2023-01-15T17:13:41.915Z,7.30
2023-01-15T17:16:28.094Z,7.10
2023-01-15T17:19:14.336Z,7.38
2023-01-15T17:22:00.638Z,7.22
2023-01-15T17:24:50.727Z,7.80
2023-01-15T17:27:37.156Z,7.35
2023-01-15T17:30:26.289Z,7.43
2023-01-15T17:33:13.961Z,7.55
2023-01-15T17:36:01.499Z,7.43
2023-01-15T17:39:02.817Z,7.15
2023-01-15T17:41:48.834Z,6.63
2023-01-15T17:44:35.887Z,7.68
2023-01-15T17:47:23.091Z,7.30
2023-01-15T17:50:10.082Z,7.50
2023-01-15T17:52:56.206Z,7.55
2023-01-15T17:56:00.989Z,7.35
2023-01-15T17:59:06.491Z,7.53
2023-01-15T18:02:11.536Z,7.55
2023-01-15T18:05:16.612Z,7.22
2023-01-15T18:08:10.917Z,7.53
2023-01-15T18:11:00.377Z,7.35
2023-01-15T18:13:46.975Z,7.25
2023-01-15T18:16:33.744Z,7.72
2023-01-15T18:19:22.247Z,7.15
2023-01-15T18:22:10.616Z,7.97
2023-01-15T18:24:57.793Z,7.82
2023-01-15T18:27:43.980Z,7.85
2023-01-15T18:30:30.499Z,7.80
2023-01-15T18:33:17.613Z,7.45
2023-01-15T18:36:05.989Z,7.97
2023-01-15T18:38:52.237Z,7.88
2023-01-15T18:41:38.423Z,7.47
2023-01-15T18:44:45.181Z,7.78
2023-01-15T18:47:31.672Z,7.80
2023-01-15T18:50:18.972Z,7.90
2023-01-15T18:53:05.545Z,7.35
2023-01-15T18:55:57.188Z,7.70
2023-01-15T18:58:43.703Z,8.25
2023-01-15T19:01:30.173Z,9.25
2023-01-15T19:04:19.509Z,8.93
2023-01-15T19:07:07.211Z,9.98
2023-01-15T19:09:55.613Z,9.27
2023-01-15T19:12:43.658Z,8.90
2023-01-15T19:15:48.744Z,8.80
2023-01-15T19:18:52.615Z,8.32
2023-01-15T19:21:39.017Z,8.27
2023-01-15T19:24:30.507Z,8.85
2023-01-15T19:27:17.927Z,9.25
2023-01-15T19:30:07.521Z,8.60
2023-01-15T19:32:59.641Z,8.93
2023-01-15T19:35:46.496Z,9.05
2023-01-15T19:38:34.673Z,8.68
2023-01-15T19:41:39.604Z,8.52
2023-01-15T19:44:44.842Z,8.90
2023-01-15T19:47:53.216Z,8.65
2023-01-15T19:50:42.483Z,9.45
2023-01-15T19:53:29.395Z,8.48
2023-01-15T19:56:16.090Z,8.43
2023-01-15T19:59:05.439Z,8.18
2023-01-15T20:01:54.307Z,7.38
2023-01-15T20:04:40.595Z,7.72
2023-01-15T20:07:48.061Z,7.60
2023-01-15T20:10:39.057Z,7.50
2023-01-15T20:13:43.778Z,6.85
2023-01-15T20:16:30.160Z,6.72
2023-01-15T20:19:18.366Z,7.30
2023-01-15T20:22:05.296Z,6.68
2023-01-15T20:24:52.566Z,6.32
2023-01-15T20:27:40.853Z,6.30
2023-01-15T20:30:29.097Z,5.90
2023-01-15T20:33:15.433Z,5.80
2023-01-15T20:36:05.580Z,4.97
2023-01-15T20:38:52.160Z,5.00
2023-01-15T20:41:57.126Z,5.03
2023-01-15T20:45:07.146Z,4.60
2023-01-15T20:48:11.822Z,3.80
2023-01-15T20:51:01.636Z,4.00
2023-01-15T20:53:49.771Z,3.80
2023-01-15T20:56:37.110Z,3.60
2023-01-15T20:59:23.817Z,3.65
2023-01-15T21:02:12.030Z,3.55
2023-01-15T21:04:58.429Z,3.55
2023-01-15T21:07:44.708Z,3.80
2023-01-15T21:10:30.999Z,3.30
2023-01-15T21:13:17.831Z,3.33
2023-01-15T21:16:05.551Z,3.40
2023-01-15T21:18:52.276Z,3.20
2023-01-15T21:21:39.372Z,2.75
2023-01-15T21:24:25.769Z,3.17
2023-01-15T21:27:21.348Z,3.08
2023-01-15T21:30:08.309Z,2.80
2023-01-15T21:32:55.092Z,2.75
2023-01-15T21:35:41.762Z,2.90
2023-01-15T21:38:28.591Z,3.10
2023-01-15T21:41:15.458Z,2.85
2023-01-15T21:44:20.586Z,2.80
2023-01-15T21:47:13.103Z,2.55
2023-01-15T21:49:59.559Z,2.60
2023-01-15T21:52:49.060Z,2.40
2023-01-15T21:55:35.577Z,2.25
2023-01-15T21:58:22.175Z,2.72
2023-01-15T22:01:18.737Z,2.42
2023-01-15T22:04:06.067Z,2.50
2023-01-15T22:06:52.903Z,2.78
2023-01-15T22:09:39.491Z,2.53
2023-01-15T22:12:25.958Z,2.30
2023-01-15T22:15:12.487Z,2.50
2023-01-15T22:17:59.643Z,2.47
2023-01-15T22:20:46.885Z,2.63
2023-01-15T22:23:34.085Z,2.30
2023-01-15T22:26:21.466Z,2.50
2023-01-15T22:29:07.710Z,2.30
2023-01-15T22:31:54.071Z,2.28
2023-01-15T22:34:40.525Z,2.30
2023-01-15T22:37:26.851Z,2.00
2023-01-15T22:40:13.812Z,2.50
2023-01-15T22:43:00.614Z,2.35
2023-01-15T22:45:46.992Z,2.58
2023-01-15T22:48:33.319Z,2.33
2023-01-15T22:51:19.578Z,2.28
2023-01-15T22:54:05.803Z,2.70
2023-01-15T22:56:52.153Z,2.63
2023-01-15T22:59:38.291Z,2.67
2023-01-15T23:02:56.332Z,2.40
2023-01-15T23:05:43.098Z,2.80
2023-01-15T23:08:32.357Z,2.60
2023-01-15T23:11:18.402Z,2.53
2023-01-15T23:14:05.365Z,3.10
2023-01-15T23:16:52.889Z,2.83
2023-01-15T23:19:39.267Z,3.17
2023-01-15T23:22:26.164Z,2.80
2023-01-15T23:25:12.935Z,2.90
2023-01-15T23:27:59.826Z,2.72
2023-01-15T23:30:46.492Z,2.90
2023-01-15T23:33:33.563Z,3.10
2023-01-15T23:36:20.368Z,3.20
2023-01-15T23:39:07.260Z,3.15
2023-01-15T23:42:22.208Z,3.20
2023-01-15T23:45:30.699Z,3.00
2023-01-15T23:48:17.797Z,3.28
2023-01-15T23:51:05.100Z,2.70
2023-01-15T23:53:53.098Z,2.90
2023-01-15T23:56:39.765Z,3.08
2023-01-15T23:59:26.928Z,3.03
